createdAt,value
2017-10-11T00:00:14.896Z,961.5
2017-10-11T00:01:14.910Z,961.46
2017-10-11T00:02:14.933Z,961.46
2017-10-11T00:03:14.950Z,961.46
2017-10-11T00:04:14.974Z,961.43
2017-10-11T00:05:14.990Z,961.48
2017-10-11T00:06:15.010Z,961.49
2017-10-11T00:07:15.033Z,961.49
2017-10-11T00:08:15.053Z,961.5
2017-10-11T00:09:15.118Z,961.5
2017-10-11T00:10:15.089Z,961.47
2017-10-11T00:11:15.111Z,961.48
2017-10-11T00:12:15.148Z,961.47
2017-10-11T00:13:15.149Z,961.46
2017-10-11T00:14:15.173Z,961.46
2017-10-11T00:15:15.189Z,961.48
2017-10-11T00:16:15.209Z,961.5
2017-10-11T00:17:15.229Z,961.48
2017-10-11T00:18:15.248Z,961.51
2017-10-11T00:19:15.267Z,961.47
2017-10-11T00:20:15.285Z,961.51
2017-10-11T00:21:15.308Z,961.5
2017-10-11T00:22:15.328Z,961.47
2017-10-11T00:23:15.348Z,961.5
2017-10-11T00:24:15.367Z,961.5
2017-10-11T00:25:15.387Z,961.5
2017-10-11T00:26:15.409Z,961.51
2017-10-11T00:27:15.428Z,961.55
2017-10-11T00:28:15.495Z,961.55
2017-10-11T00:29:15.465Z,961.54
2017-10-11T00:30:15.484Z,961.52
2017-10-11T00:31:15.505Z,961.56
2017-10-11T00:32:15.525Z,961.56
2017-10-11T00:33:15.546Z,961.58
2017-10-11T00:34:15.565Z,961.56
2017-10-11T00:35:15.587Z,961.53
2017-10-11T00:36:15.621Z,961.51
2017-10-11T00:37:15.625Z,961.53
2017-10-11T00:38:15.646Z,961.51
2017-10-11T00:39:15.669Z,961.5
2017-10-11T00:40:15.692Z,961.54
2017-10-11T00:41:15.705Z,961.5
2017-10-11T00:42:15.724Z,961.46
2017-10-11T00:43:15.794Z,961.52
2017-10-11T00:44:15.766Z,961.56
2017-10-11T00:45:15.786Z,961.53
2017-10-11T00:46:15.803Z,961.52
2017-10-11T00:47:15.831Z,961.52
2017-10-11T00:48:15.847Z,961.53
2017-10-11T00:49:15.864Z,961.48
2017-10-11T00:50:15.884Z,961.49
2017-10-11T00:51:15.905Z,961.52
2017-10-11T00:52:15.927Z,961.5
2017-10-11T00:53:15.942Z,961.51
2017-10-11T00:54:15.962Z,961.46
2017-10-11T00:55:15.983Z,961.5
2017-10-11T00:56:16.003Z,961.43
2017-10-11T00:57:16.029Z,961.45
2017-10-11T00:58:16.095Z,961.44
2017-10-11T00:59:16.063Z,961.47
2017-10-11T01:00:16.084Z,961.41
2017-10-11T01:01:16.103Z,961.43
2017-10-11T01:02:16.124Z,961.39
2017-10-11T01:03:16.143Z,961.42
2017-10-11T01:04:16.161Z,961.4
2017-10-11T01:05:16.183Z,961.43
2017-10-11T01:06:16.229Z,961.38
2017-10-11T01:07:16.222Z,961.41
2017-10-11T01:08:16.242Z,961.37
2017-10-11T01:09:16.263Z,961.46
2017-10-11T01:10:16.283Z,961.4
2017-10-11T01:11:16.322Z,961.4
2017-10-11T01:12:16.326Z,961.4
2017-10-11T01:13:16.541Z,961.41
2017-10-11T01:14:16.363Z,961.41
2017-10-11T01:15:16.382Z,961.45
2017-10-11T01:16:16.401Z,961.45
2017-10-11T01:17:16.424Z,961.49
2017-10-11T01:18:16.442Z,961.41
2017-10-11T01:19:16.462Z,961.43
2017-10-11T01:20:16.482Z,961.48
2017-10-11T01:21:16.505Z,961.51
2017-10-11T01:22:16.523Z,961.49
2017-10-11T01:23:16.542Z,961.49
2017-10-11T01:24:16.569Z,961.47
2017-10-11T01:25:16.584Z,961.47
2017-10-11T01:26:16.604Z,961.49
2017-10-11T01:27:16.623Z,961.48
2017-10-11T01:28:16.644Z,961.48
2017-10-11T01:29:16.666Z,961.48
2017-10-11T01:30:16.685Z,961.47
2017-10-11T01:31:16.944Z,961.44
2017-10-11T01:32:16.776Z,961.45
2017-10-11T01:33:16.746Z,961.43
2017-10-11T01:34:16.823Z,961.44
2017-10-11T01:35:16.788Z,961.43
2017-10-11T01:36:16.809Z,961.42
2017-10-11T01:37:16.831Z,961.43
2017-10-11T01:38:16.898Z,961.43
2017-10-11T01:39:16.867Z,961.43
2017-10-11T01:40:16.892Z,961.4
2017-10-11T01:41:16.907Z,961.44
2017-10-11T01:42:16.928Z,961.4
2017-10-11T01:43:16.953Z,961.39
2017-10-11T01:44:16.975Z,961.38
2017-10-11T01:45:16.990Z,961.41
2017-10-11T01:46:17.010Z,961.38
2017-10-11T01:47:17.032Z,961.36
2017-10-11T01:48:17.062Z,961.39
2017-10-11T01:49:17.071Z,961.39
2017-10-11T01:50:17.092Z,961.43
2017-10-11T01:51:17.116Z,961.4
2017-10-11T01:52:17.131Z,961.39
2017-10-11T01:53:17.207Z,961.36
2017-10-11T01:54:17.180Z,961.43
2017-10-11T01:55:17.192Z,961.38
2017-10-11T01:56:17.214Z,961.38
2017-10-11T01:57:17.233Z,961.36
2017-10-11T01:58:17.254Z,961.37
2017-10-11T01:59:17.282Z,961.36
2017-10-11T02:00:17.293Z,961.37
2017-10-11T02:01:17.316Z,961.34
2017-10-11T02:02:17.334Z,961.35
2017-10-11T02:03:17.356Z,961.37
2017-10-11T02:04:17.378Z,961.35
2017-10-11T02:05:17.395Z,961.38
2017-10-11T02:06:17.414Z,961.38
2017-10-11T02:07:17.435Z,961.35
2017-10-11T02:08:17.455Z,961.39
2017-10-11T02:09:17.476Z,961.4
2017-10-11T02:10:17.545Z,961.37
2017-10-11T02:11:17.521Z,961.38
2017-10-11T02:12:17.536Z,961.38
2017-10-11T02:13:17.556Z,961.34
2017-10-11T02:14:17.578Z,961.37
2017-10-11T02:15:17.596Z,961.38
2017-10-11T02:16:17.615Z,961.36
2017-10-11T02:17:17.643Z,961.36
2017-10-11T02:18:17.657Z,961.33
2017-10-11T02:19:17.675Z,961.37
2017-10-11T02:20:17.696Z,961.37
2017-10-11T02:21:17.715Z,961.37
2017-10-11T02:22:17.737Z,961.37
2017-10-11T02:23:17.756Z,961.38
2017-10-11T02:24:17.776Z,961.36
2017-10-11T02:25:17.800Z,961.37
2017-10-11T02:26:17.868Z,961.33
2017-10-11T02:27:17.837Z,961.35
2017-10-11T02:28:17.855Z,961.29
2017-10-11T02:29:17.874Z,961.34
2017-10-11T02:30:17.896Z,961.3
2017-10-11T02:31:17.915Z,961.29
2017-10-11T02:32:17.933Z,961.27
2017-10-11T02:33:17.958Z,961.3
2017-10-11T02:34:17.973Z,961.28
2017-10-11T02:35:17.993Z,961.27
2017-10-11T02:36:18.038Z,961.27
2017-10-11T02:37:18.049Z,961.31
2017-10-11T02:38:18.052Z,961.26
2017-10-11T02:39:18.080Z,961.28
2017-10-11T02:40:18.092Z,961.26
2017-10-11T02:41:18.112Z,961.22
2017-10-11T02:42:18.136Z,961.24
2017-10-11T02:43:18.152Z,961.29
2017-10-11T02:44:18.172Z,961.23
2017-10-11T02:45:18.191Z,961.29
2017-10-11T02:46:18.215Z,961.26
2017-10-11T02:47:18.230Z,961.27
2017-10-11T02:48:18.248Z,961.19
2017-10-11T02:49:18.278Z,961.23
2017-10-11T02:50:18.288Z,961.23
2017-10-11T02:51:18.314Z,961.27
2017-10-11T02:52:18.331Z,961.25
2017-10-11T02:53:18.348Z,961.25
2017-10-11T02:54:18.370Z,961.24
2017-10-11T02:55:18.387Z,961.26
2017-10-11T02:56:18.407Z,961.25
2017-10-11T02:57:18.425Z,961.23
2017-10-11T02:58:18.448Z,961.25
2017-10-11T02:59:18.515Z,961.24
2017-10-11T03:00:18.486Z,961.24
2017-10-11T03:01:18.504Z,961.17
2017-10-11T03:02:18.522Z,961.2
2017-10-11T03:03:18.560Z,961.21
2017-10-11T03:04:18.569Z,961.24
2017-10-11T03:05:18.584Z,961.15
2017-10-11T03:06:18.601Z,961.21
2017-10-11T03:07:18.621Z,961.19
2017-10-11T03:08:18.645Z,961.22
2017-10-11T03:09:18.662Z,961.19
2017-10-11T03:10:18.679Z,961.2
2017-10-11T03:11:18.700Z,961.21
2017-10-11T03:12:18.716Z,961.15
2017-10-11T03:13:18.737Z,961.22
2017-10-11T03:14:18.758Z,961.22
2017-10-11T03:15:18.777Z,961.22
2017-10-11T03:16:18.859Z,961.19
2017-10-11T03:17:18.815Z,961.26
2017-10-11T03:18:18.841Z,961.21
2017-10-11T03:19:18.859Z,961.24
2017-10-11T03:20:18.873Z,961.22
2017-10-11T03:21:18.893Z,961.23
2017-10-11T03:22:18.916Z,961.22
2017-10-11T03:23:18.932Z,961.23
2017-10-11T03:24:18.949Z,961.27
2017-10-11T03:25:18.978Z,961.25
2017-10-11T03:26:18.990Z,961.21
2017-10-11T03:27:19.008Z,961.25
2017-10-11T03:28:19.031Z,961.21
2017-10-11T03:29:19.048Z,961.21
2017-10-11T03:30:19.068Z,961.21
2017-10-11T03:31:19.087Z,961.18
2017-10-11T03:32:19.110Z,961.18
2017-10-11T03:33:19.127Z,961.16
2017-10-11T03:34:19.143Z,961.14
2017-10-11T03:35:19.166Z,961.11
2017-10-11T03:36:19.182Z,961.1
2017-10-11T03:37:19.217Z,961.14
2017-10-11T03:38:19.223Z,961.12
2017-10-11T03:39:19.246Z,961.12
2017-10-11T03:40:19.260Z,961.14
2017-10-11T03:41:19.280Z,961.16
2017-10-11T03:42:19.299Z,961.12
2017-10-11T03:43:19.319Z,961.15
2017-10-11T03:44:19.336Z,961.15
2017-10-11T03:45:19.356Z,961.15
2017-10-11T03:46:19.375Z,961.17
2017-10-11T03:47:19.395Z,961.15
2017-10-11T03:48:19.464Z,961.14
2017-10-11T03:49:19.434Z,961.13
2017-10-11T03:50:19.452Z,961.16
2017-10-11T03:51:19.472Z,961.14
2017-10-11T03:52:19.490Z,961.13
2017-10-11T03:53:19.509Z,961.16
2017-10-11T03:54:19.528Z,961.18
2017-10-11T03:55:19.556Z,961.17
2017-10-11T03:56:19.568Z,961.17
2017-10-11T03:57:19.586Z,961.17
2017-10-11T03:58:19.605Z,961.16
2017-10-11T03:59:19.624Z,961.11
2017-10-11T04:00:19.643Z,961.12
2017-10-11T04:01:19.662Z,961.1
2017-10-11T04:02:19.681Z,961.15
2017-10-11T04:03:19.747Z,961.11
2017-10-11T04:04:19.721Z,961.15
2017-10-11T04:05:19.739Z,961.16
2017-10-11T04:06:19.756Z,961.1
2017-10-11T04:07:19.774Z,961.09
2017-10-11T04:08:19.798Z,961.13
2017-10-11T04:09:19.813Z,961.11
2017-10-11T04:10:19.833Z,961.09
2017-10-11T04:11:19.857Z,961.07
2017-10-11T04:12:19.870Z,961.12
2017-10-11T04:13:19.890Z,961.11
2017-10-11T04:14:19.911Z,961.09
2017-10-11T04:15:19.926Z,961.06
2017-10-11T04:16:19.951Z,961.1
2017-10-11T04:17:19.971Z,961.1
2017-10-11T04:18:20.037Z,961.09
2017-10-11T04:19:20.007Z,961.08
2017-10-11T04:20:20.029Z,961.09
2017-10-11T04:21:20.045Z,961.07
2017-10-11T04:22:20.062Z,961.06
2017-10-11T04:23:20.082Z,961.12
2017-10-11T04:24:20.101Z,961.13
2017-10-11T04:25:20.117Z,961.1
2017-10-11T04:26:20.144Z,961.08
2017-10-11T04:27:20.156Z,961.11
2017-10-11T04:28:20.177Z,961.07
2017-10-11T04:29:20.196Z,961.04
2017-10-11T04:30:20.216Z,961.1
2017-10-11T04:31:20.236Z,961.09
2017-10-11T04:32:20.255Z,961.1
2017-10-11T04:33:20.323Z,961.12
2017-10-11T04:34:20.291Z,961.08
2017-10-11T04:35:20.312Z,961.07
2017-10-11T04:36:20.330Z,961.09
2017-10-11T04:37:20.356Z,961.06
2017-10-11T04:38:20.372Z,961.1
2017-10-11T04:39:20.397Z,961.08
2017-10-11T04:40:20.407Z,961.09
2017-10-11T04:41:20.446Z,961.09
2017-10-11T04:42:20.447Z,961.07
2017-10-11T04:43:20.462Z,961.12
2017-10-11T04:44:20.483Z,961.08
2017-10-11T04:45:20.502Z,961.07
2017-10-11T04:46:20.523Z,961.07
2017-10-11T04:47:20.541Z,961.07
2017-10-11T04:48:20.611Z,961.08
2017-10-11T04:49:20.579Z,961.06
2017-10-11T04:50:20.596Z,961.07
2017-10-11T04:51:20.626Z,961.03
2017-10-11T04:52:20.635Z,961.04
2017-10-11T04:53:20.655Z,961.03
2017-10-11T04:54:20.673Z,961.03
2017-10-11T04:55:20.693Z,961.03
2017-10-11T04:56:20.714Z,961.03
2017-10-11T04:57:20.733Z,961.07
2017-10-11T04:58:20.749Z,961.04
2017-10-11T04:59:20.768Z,961.04
2017-10-11T05:00:20.786Z,961.03
2017-10-11T05:01:20.807Z,961.07
2017-10-11T05:02:20.826Z,961.02
2017-10-11T05:03:20.845Z,961.08
2017-10-11T05:04:20.864Z,961.08
2017-10-11T05:05:20.884Z,961.09
2017-10-11T05:06:20.950Z,961.07
2017-10-11T05:07:20.919Z,961.07
2017-10-11T05:08:20.943Z,961.07
2017-10-11T05:09:20.960Z,961.1
2017-10-11T05:10:20.976Z,961.1
2017-10-11T05:11:21.002Z,961.1
2017-10-11T05:12:21.016Z,961.1
2017-10-11T05:13:21.033Z,961.14
2017-10-11T05:14:21.052Z,961.12
2017-10-11T05:15:21.069Z,961.09
2017-10-11T05:16:21.089Z,961.16
2017-10-11T05:17:21.109Z,961.13
2017-10-11T05:18:21.125Z,961.15
2017-10-11T05:19:21.144Z,961.13
2017-10-11T05:20:21.162Z,961.14
2017-10-11T05:21:21.181Z,961.15
2017-10-11T05:22:21.201Z,961.15
2017-10-11T05:23:21.224Z,961.13
2017-10-11T05:24:21.244Z,961.14
2017-10-11T05:25:21.259Z,961.12
2017-10-11T05:26:21.276Z,961.16
2017-10-11T05:27:21.294Z,961.19
2017-10-11T05:28:21.312Z,961.18
2017-10-11T05:29:21.332Z,961.18
2017-10-11T05:30:21.348Z,961.2
2017-10-11T05:31:21.369Z,961.17
2017-10-11T05:32:21.386Z,961.2
2017-10-11T05:33:21.407Z,961.18
2017-10-11T05:34:21.425Z,961.19
2017-10-11T05:35:21.444Z,961.21
2017-10-11T05:36:21.460Z,961.22
2017-10-11T05:37:21.483Z,961.22
2017-10-11T05:38:21.503Z,961.23
2017-10-11T05:39:21.520Z,961.24
2017-10-11T05:40:21.537Z,961.23
2017-10-11T05:41:21.605Z,961.22
2017-10-11T05:42:21.572Z,961.26
2017-10-11T05:43:21.591Z,961.26
2017-10-11T05:44:21.615Z,961.24
2017-10-11T05:45:21.628Z,961.29
2017-10-11T05:46:21.650Z,961.31
2017-10-11T05:47:21.669Z,961.32
2017-10-11T05:48:21.687Z,961.29
2017-10-11T05:49:21.721Z,961.25
2017-10-11T05:50:21.723Z,961.26
2017-10-11T05:51:21.765Z,961.3
2017-10-11T05:52:21.767Z,961.26
2017-10-11T05:53:21.863Z,961.29
2017-10-11T05:54:21.799Z,961.3
2017-10-11T05:55:21.817Z,961.29
2017-10-11T05:56:21.836Z,961.27
2017-10-11T05:57:21.907Z,961.3
2017-10-11T05:58:21.873Z,961.34
2017-10-11T05:59:21.893Z,961.32
2017-10-11T06:00:21.920Z,961.36
2017-10-11T06:01:21.947Z,961.34
2017-10-11T06:02:21.952Z,961.38
2017-10-11T06:03:21.971Z,961.34
2017-10-11T06:04:21.988Z,961.34
2017-10-11T06:05:22.007Z,961.35
2017-10-11T06:06:22.026Z,961.35
2017-10-11T06:07:22.155Z,961.35
2017-10-11T06:08:22.068Z,961.41
2017-10-11T06:09:22.085Z,961.36
2017-10-11T06:10:22.118Z,961.35
2017-10-11T06:11:22.125Z,961.38
2017-10-11T06:12:22.145Z,961.38
2017-10-11T06:13:22.160Z,961.38
2017-10-11T06:14:22.180Z,961.39
2017-10-11T06:15:22.199Z,961.39
2017-10-11T06:16:22.220Z,961.34
2017-10-11T06:17:22.239Z,961.36
2017-10-11T06:18:22.257Z,961.33
2017-10-11T06:19:22.276Z,961.38
2017-10-11T06:20:22.299Z,961.34
2017-10-11T06:21:22.401Z,961.37
2017-10-11T06:22:22.383Z,961.38
2017-10-11T06:23:22.352Z,961.37
2017-10-11T06:24:22.426Z,961.39
2017-10-11T06:25:22.427Z,961.39
2017-10-11T06:26:22.410Z,961.42
2017-10-11T06:27:22.545Z,961.43
2017-10-11T06:28:22.448Z,961.42
2017-10-11T06:29:22.469Z,961.39
2017-10-11T06:30:22.543Z,961.43
2017-10-11T06:31:22.571Z,961.42
2017-10-11T06:32:22.541Z,961.42
2017-10-11T06:33:22.548Z,961.49
2017-10-11T06:34:22.563Z,961.44
2017-10-11T06:35:22.631Z,961.45
2017-10-11T06:36:22.605Z,961.51
2017-10-11T06:37:22.624Z,961.53
2017-10-11T06:38:22.645Z,961.53
2017-10-11T06:39:22.663Z,961.53
2017-10-11T06:40:22.681Z,961.54
2017-10-11T06:41:22.699Z,961.51
2017-10-11T06:42:22.816Z,961.59
2017-10-11T06:43:22.738Z,961.51
2017-10-11T06:44:22.822Z,961.54
2017-10-11T06:45:22.817Z,961.56
2017-10-11T06:46:22.799Z,961.58
2017-10-11T06:47:22.817Z,961.56
2017-10-11T06:48:22.839Z,961.63
2017-10-11T06:49:22.862Z,961.61
2017-10-11T06:50:22.877Z,961.63
2017-10-11T06:51:22.905Z,961.66
2017-10-11T06:52:22.919Z,961.63
2017-10-11T06:53:22.934Z,961.69
2017-10-11T06:54:22.954Z,961.69
2017-10-11T06:55:22.976Z,961.72
2017-10-11T06:56:22.993Z,961.71
2017-10-11T06:57:23.386Z,961.69
2017-10-11T06:58:23.078Z,961.71
2017-10-11T06:59:23.054Z,961.69
2017-10-11T07:00:23.071Z,961.72
2017-10-11T07:01:23.097Z,961.79
2017-10-11T07:02:23.211Z,961.75
2017-10-11T07:03:23.182Z,961.75
2017-10-11T07:04:23.264Z,961.77
2017-10-11T07:05:23.176Z,961.74
2017-10-11T07:06:23.192Z,961.76
2017-10-11T07:07:23.211Z,961.8
2017-10-11T07:08:23.236Z,961.77
2017-10-11T07:09:23.269Z,961.76
2017-10-11T07:10:23.269Z,961.8
2017-10-11T07:11:23.293Z,961.78
2017-10-11T07:12:23.385Z,961.78
2017-10-11T07:13:23.565Z,961.83
2017-10-11T07:14:23.351Z,961.77
2017-10-11T07:15:23.395Z,961.79
2017-10-11T07:16:23.457Z,961.79
2017-10-11T07:17:23.411Z,961.81
2017-10-11T07:18:23.433Z,961.83
2017-10-11T07:19:23.452Z,961.83
2017-10-11T07:20:23.491Z,961.84
2017-10-11T07:21:23.492Z,961.83
2017-10-11T07:22:23.517Z,961.86
2017-10-11T07:23:23.549Z,961.85
2017-10-11T07:24:23.748Z,961.85
2017-10-11T07:25:23.575Z,961.86
2017-10-11T07:26:23.644Z,961.87
2017-10-11T07:27:23.619Z,961.88
2017-10-11T07:28:23.688Z,961.85
2017-10-11T07:29:23.663Z,961.85
2017-10-11T07:30:23.687Z,961.85
2017-10-11T07:31:23.702Z,961.85
2017-10-11T07:32:23.723Z,961.84
2017-10-11T07:33:23.744Z,961.84
2017-10-11T07:34:23.762Z,961.86
2017-10-11T07:35:23.814Z,961.84
2017-10-11T07:36:23.803Z,961.84
2017-10-11T07:37:23.834Z,961.88
2017-10-11T07:38:23.852Z,961.83
2017-10-11T07:39:23.865Z,961.82
2017-10-11T07:40:23.887Z,961.86
2017-10-11T07:41:23.912Z,961.82
2017-10-11T07:42:23.931Z,961.81
2017-10-11T07:43:24.001Z,961.85
2017-10-11T07:44:23.980Z,961.84
2017-10-11T07:45:23.995Z,961.93
2017-10-11T07:46:24.022Z,961.83
2017-10-11T07:47:24.052Z,961.9
2017-10-11T07:48:24.060Z,961.87
2017-10-11T07:49:24.086Z,961.88
2017-10-11T07:50:24.103Z,961.88
2017-10-11T07:51:24.120Z,961.93
2017-10-11T07:52:24.145Z,961.92
2017-10-11T07:53:24.184Z,961.95
2017-10-11T07:54:24.184Z,961.94
2017-10-11T07:55:24.206Z,961.96
2017-10-11T07:56:24.261Z,961.9
2017-10-11T07:57:24.246Z,961.95
2017-10-11T07:58:24.271Z,961.93
2017-10-11T07:59:24.339Z,961.93
2017-10-11T08:00:24.324Z,961.92
2017-10-11T08:01:24.333Z,961.89
2017-10-11T08:02:24.401Z,961.92
2017-10-11T08:03:24.379Z,961.91
2017-10-11T08:04:24.397Z,961.88
2017-10-11T08:05:24.418Z,961.87
2017-10-11T08:06:24.453Z,961.91
2017-10-11T08:07:24.463Z,961.92
2017-10-11T08:08:24.485Z,961.88
2017-10-11T08:09:24.705Z,961.87
2017-10-11T08:10:24.524Z,961.9
2017-10-11T08:11:24.628Z,961.93
2017-10-11T08:12:24.570Z,961.92
2017-10-11T08:13:24.590Z,961.88
2017-10-11T08:14:24.661Z,961.9
2017-10-11T08:15:24.632Z,961.96
2017-10-11T08:16:24.702Z,961.91
2017-10-11T08:17:24.680Z,961.9
2017-10-11T08:18:24.698Z,961.92
2017-10-11T08:19:24.718Z,961.96
2017-10-11T08:20:24.740Z,961.9
2017-10-11T08:21:24.803Z,961.93
2017-10-11T08:22:24.784Z,961.96
2017-10-11T08:23:24.866Z,961.97
2017-10-11T08:24:24.828Z,961.96
2017-10-11T08:25:24.853Z,961.98
2017-10-11T08:26:24.871Z,961.97
2017-10-11T08:27:24.896Z,961.95
2017-10-11T08:28:24.923Z,961.94
2017-10-11T08:29:24.945Z,961.99
2017-10-11T08:30:25.009Z,961.96
2017-10-11T08:31:24.998Z,961.89
2017-10-11T08:32:25.005Z,961.95
2017-10-11T08:33:25.036Z,961.89
2017-10-11T08:34:25.054Z,961.97
2017-10-11T08:35:25.073Z,961.96
2017-10-11T08:36:25.095Z,961.97
2017-10-11T08:37:25.120Z,961.96
2017-10-11T08:38:25.140Z,961.99
2017-10-11T08:39:25.169Z,961.97
2017-10-11T08:40:25.183Z,961.94
2017-10-11T08:41:25.210Z,961.94
2017-10-11T08:42:25.231Z,961.98
2017-10-11T08:43:25.254Z,962.01
2017-10-11T08:44:25.278Z,961.98
2017-10-11T08:45:25.296Z,962.02
2017-10-11T08:46:25.370Z,962.03
2017-10-11T08:47:25.349Z,962.01
2017-10-11T08:48:25.370Z,962.02
2017-10-11T08:49:25.391Z,962.01
2017-10-11T08:50:25.416Z,961.99
2017-10-11T08:51:25.436Z,961.95
2017-10-11T08:52:25.462Z,961.99
2017-10-11T08:53:25.479Z,962
2017-10-11T08:54:25.505Z,961.97
2017-10-11T08:55:25.526Z,961.98
2017-10-11T08:56:25.548Z,961.96
2017-10-11T08:57:25.571Z,961.92
2017-10-11T08:58:25.597Z,961.89
2017-10-11T08:59:25.618Z,961.95
2017-10-11T09:00:25.647Z,961.99
2017-10-11T09:01:25.716Z,961.95
2017-10-11T09:02:25.689Z,961.95
2017-10-11T09:03:25.711Z,961.97
2017-10-11T09:04:25.737Z,961.98
2017-10-11T09:05:25.760Z,962
2017-10-11T09:06:25.787Z,961.99
2017-10-11T09:07:25.806Z,961.98
2017-10-11T09:08:25.831Z,961.99
2017-10-11T09:09:25.857Z,962.02
2017-10-11T09:10:25.878Z,961.96
2017-10-11T09:11:25.901Z,961.98
2017-10-11T09:12:25.924Z,961.96
2017-10-11T09:13:25.994Z,961.95
2017-10-11T09:14:25.973Z,961.95
2017-10-11T09:15:26.031Z,961.95
2017-10-11T09:16:26.020Z,961.97
2017-10-11T09:17:26.042Z,961.97
2017-10-11T09:18:26.066Z,962
2017-10-11T09:19:26.143Z,961.95
2017-10-11T09:20:26.148Z,961.93
2017-10-11T09:21:26.141Z,961.98
2017-10-11T09:22:26.164Z,961.96
2017-10-11T09:23:26.226Z,961.94
2017-10-11T09:24:26.211Z,961.93
2017-10-11T09:25:26.380Z,961.93
2017-10-11T09:26:26.275Z,961.94
2017-10-11T09:27:26.428Z,961.93
2017-10-11T09:28:26.358Z,961.99
2017-10-11T09:29:26.330Z,961.97
2017-10-11T09:30:26.356Z,961.96
2017-10-11T09:31:26.380Z,961.96
2017-10-11T09:32:26.404Z,961.95
2017-10-11T09:33:26.481Z,961.93
2017-10-11T09:34:26.499Z,961.89
2017-10-11T09:35:26.473Z,961.91
2017-10-11T09:36:26.499Z,961.84
2017-10-11T09:37:26.532Z,961.86
2017-10-11T09:38:26.546Z,961.88
2017-10-11T09:39:26.570Z,961.88
2017-10-11T09:40:26.596Z,961.84
2017-10-11T09:41:26.632Z,961.88
2017-10-11T09:42:26.649Z,961.96
2017-10-11T09:43:26.669Z,961.92
2017-10-11T09:44:26.696Z,961.9
2017-10-11T09:45:26.718Z,961.87
2017-10-11T09:46:26.742Z,961.9
2017-10-11T09:47:26.765Z,961.86
2017-10-11T09:48:26.795Z,961.87
2017-10-11T09:49:26.814Z,961.89
2017-10-11T09:50:26.837Z,961.84
2017-10-11T09:51:26.863Z,961.89
2017-10-11T09:52:26.887Z,961.86
2017-10-11T09:53:26.913Z,961.82
2017-10-11T09:54:26.936Z,961.87
2017-10-11T09:55:26.960Z,961.88
2017-10-11T09:56:27.005Z,961.94
2017-10-11T09:57:27.015Z,961.89
2017-10-11T09:58:27.035Z,961.86
2017-10-11T09:59:27.058Z,961.77
2017-10-11T10:00:27.084Z,961.82
2017-10-11T10:01:27.113Z,961.83
2017-10-11T10:02:27.131Z,961.82
2017-10-11T10:03:27.163Z,961.81
2017-10-11T10:04:27.196Z,961.86
2017-10-11T10:05:27.205Z,961.81
2017-10-11T10:06:27.229Z,961.87
2017-10-11T10:07:27.256Z,961.89
2017-10-11T10:08:27.332Z,961.91
2017-10-11T10:09:27.303Z,961.93
2017-10-11T10:10:27.328Z,961.88
2017-10-11T10:11:27.354Z,961.97
2017-10-11T10:12:27.386Z,961.97
2017-10-11T10:13:27.403Z,961.96
2017-10-11T10:14:27.433Z,961.88
2017-10-11T10:15:27.461Z,961.88
2017-10-11T10:16:27.486Z,961.91
2017-10-11T10:17:27.515Z,961.98
2017-10-11T10:18:27.539Z,961.94
2017-10-11T10:19:27.568Z,962
2017-10-11T10:20:27.598Z,962.02
2017-10-11T10:21:27.627Z,962
2017-10-11T10:22:27.653Z,961.95
2017-10-11T10:23:27.676Z,961.97
2017-10-11T10:24:27.758Z,962.01
2017-10-11T10:25:27.738Z,962.02
2017-10-11T10:26:27.764Z,962.01
2017-10-11T10:27:27.794Z,962.01
2017-10-11T10:28:27.822Z,961.96
2017-10-11T10:29:27.851Z,962
2017-10-11T10:30:27.885Z,962.02
2017-10-11T10:31:27.910Z,961.97
2017-10-11T10:32:27.939Z,961.96
2017-10-11T10:33:27.971Z,961.98
2017-10-11T10:34:27.999Z,961.96
2017-10-11T10:35:28.031Z,961.99
2017-10-11T10:36:28.064Z,962.03
2017-10-11T10:37:28.093Z,962.03
2017-10-11T10:38:28.131Z,961.98
2017-10-11T10:39:28.174Z,961.99
2017-10-11T10:40:28.186Z,962.02
2017-10-11T10:41:28.267Z,961.97
2017-10-11T10:42:28.246Z,961.97
2017-10-11T10:43:28.278Z,961.95
2017-10-11T10:44:28.313Z,961.99
2017-10-11T10:45:28.340Z,961.9
2017-10-11T10:46:28.374Z,961.77
2017-10-11T10:47:28.402Z,961.87
2017-10-11T10:48:28.439Z,961.9
2017-10-11T10:49:28.467Z,961.86
2017-10-11T10:50:28.496Z,961.88
2017-10-11T10:51:28.532Z,961.92
2017-10-11T10:52:28.563Z,961.87
2017-10-11T10:53:28.601Z,961.87
2017-10-11T10:54:28.624Z,961.87
2017-10-11T10:55:28.658Z,961.84
2017-10-11T10:56:28.737Z,961.86
2017-10-11T10:57:28.718Z,961.91
2017-10-11T10:58:28.784Z,961.87
2017-10-11T10:59:28.785Z,961.89
2017-10-11T11:00:28.816Z,961.9
2017-10-11T11:01:28.846Z,961.83
2017-10-11T11:02:28.877Z,961.87
2017-10-11T11:03:28.910Z,961.91
2017-10-11T11:04:28.941Z,961.92
2017-10-11T11:05:28.979Z,961.91
2017-10-11T11:06:29.015Z,961.85
2017-10-11T11:07:29.048Z,961.83
2017-10-11T11:08:29.075Z,961.83
2017-10-11T11:09:29.107Z,961.87
2017-10-11T11:10:29.138Z,961.88
2017-10-11T11:11:29.225Z,961.75
2017-10-11T11:12:29.202Z,961.74
2017-10-11T11:13:29.237Z,961.7
2017-10-11T11:14:29.274Z,961.74
2017-10-11T11:15:29.302Z,961.77
2017-10-11T11:16:29.340Z,961.76
2017-10-11T11:17:29.373Z,961.75
2017-10-11T11:18:29.408Z,961.76
2017-10-11T11:19:29.456Z,961.56
2017-10-11T11:20:29.470Z,961.76
2017-10-11T11:21:29.506Z,961.79
2017-10-11T11:22:29.544Z,961.74
2017-10-11T11:23:29.568Z,961.72
2017-10-11T11:24:29.608Z,961.64
2017-10-11T11:25:29.633Z,961.69
2017-10-11T11:26:29.667Z,961.72
2017-10-11T11:27:29.707Z,961.76
2017-10-11T11:28:29.788Z,961.8
2017-10-11T11:29:29.771Z,961.79
2017-10-11T11:30:29.801Z,961.77
2017-10-11T11:31:29.833Z,961.77
2017-10-11T11:32:29.867Z,961.76
2017-10-11T11:33:29.899Z,961.77
2017-10-11T11:34:29.937Z,961.74
2017-10-11T11:35:29.999Z,961.78
2017-10-11T11:36:30.000Z,961.82
2017-10-11T11:37:30.036Z,961.76
2017-10-11T11:38:30.069Z,961.76
2017-10-11T11:39:30.129Z,961.78
2017-10-11T11:40:30.140Z,961.81
2017-10-11T11:41:30.172Z,961.82
2017-10-11T11:42:30.214Z,961.96
2017-10-11T11:43:30.246Z,961.85
2017-10-11T11:44:30.325Z,961.88
2017-10-11T11:45:30.310Z,961.82
2017-10-11T11:46:30.347Z,961.86
2017-10-11T11:47:30.376Z,961.85
2017-10-11T11:48:30.419Z,961.86
2017-10-11T11:49:30.447Z,961.84
2017-10-11T11:50:30.484Z,961.69
2017-10-11T11:51:30.514Z,961.85
2017-10-11T11:52:30.550Z,961.84
2017-10-11T11:53:30.584Z,961.83
2017-10-11T11:54:30.629Z,961.8
2017-10-11T11:55:30.666Z,961.85
2017-10-11T11:56:30.699Z,961.83
2017-10-11T11:57:30.731Z,961.84
2017-10-11T11:58:30.764Z,961.82
2017-10-11T11:59:30.809Z,961.81
2017-10-11T12:00:30.837Z,961.43
2017-10-11T12:01:30.880Z,961.38
2017-10-11T12:02:30.994Z,961.88
2017-10-11T12:03:30.941Z,961.4
2017-10-11T12:04:31.224Z,961.87
2017-10-11T12:05:31.015Z,961.84
2017-10-11T12:06:31.057Z,961.83
2017-10-11T12:07:31.082Z,961.82
2017-10-11T12:08:31.126Z,961.86
2017-10-11T12:09:31.183Z,961.82
2017-10-11T12:10:31.189Z,961.82
2017-10-11T12:11:31.224Z,961.88
2017-10-11T12:12:31.262Z,961.79
2017-10-11T12:13:31.296Z,961.84
2017-10-11T12:14:31.331Z,961.82
2017-10-11T12:15:31.422Z,961.86
2017-10-11T12:16:31.410Z,961.81
2017-10-11T12:17:31.440Z,961.83
2017-10-11T12:18:31.478Z,961.84
2017-10-11T12:19:31.513Z,961.73
2017-10-11T12:20:31.552Z,961.75
2017-10-11T12:21:31.593Z,961.73
2017-10-11T12:22:31.622Z,961.72
2017-10-11T12:23:31.662Z,961.75
2017-10-11T12:24:31.699Z,961.72
2017-10-11T12:25:31.734Z,961.7
2017-10-11T12:26:31.772Z,961.77
2017-10-11T12:27:31.804Z,961.74
2017-10-11T12:28:31.858Z,961.75
2017-10-11T12:29:31.902Z,961.71
2017-10-11T12:30:31.968Z,961.71